METAR stanice u blizini

 

LYBE - Beograd / Surčin, Srbija
Ažurirano: 27/02/2021 04:30
Partly Cloudy
Partly Cloudy
 Pravac vetra JJZ
Vetar: JJZ 7 km/h
Temperatura: 7°C
Osećaj hladnoće: 6°C
Tačka rose: 4°C
Vlažnost: 81%
Pritisak: 1023 hPa
Oblaci: Partly Cloudy
Vidljivost: 7 km
2021/02/27 03:30 LYBE 270330Z 21004KT 190V250 7000 NSC 07/04 Q1023 NOSIG
LYBT - Beograd / Batajnica, Srbija
Ažurirano: 27/02/2021 04:30
Mist, Delimično oblačno
Mist, Delimično oblačno
 Pravac vetra J
Vetar: J 6 km/h
Temperatura: 3°C
Tačka rose: 3°C
Vlažnost: 100%
Pritisak: 1023 hPa
Pregled: Mist
Oblaci: Partly Cloudy
Vidljivost: 2 km
2021/02/27 03:30 LYBT 270330Z 19003KT 2000 BR NSC 03/03 Q1023 NOSIG
LYVR - Vršac, Srbija
Ažurirano: 27/02/2021 04:30

 Pravac vetra SI
Vetar: SI 7 km/h
Vidljivost: 3 km
2021/02/27 03:30 LYVR 270330Z AUTO 05004KT 2700 1000 R19/P2000N R01/1000U BR NSC M00/M01 Q1022
 
LYKV - Lađevci, Srbija
Ažurirano: 27/02/2021 04:30
Vedro
Vedro
 Pravac vetra calm
Vetar: Tišina
Temperatura: 0°C
Tačka rose: 0°C
Vlažnost: 100%
Pritisak: 1023 hPa
Pregled: Vedro
Vidljivost: greater than 10 km
2021/02/27 03:30 LYKV 270330Z 00000KT CAVOK 00/00 Q1023 NOSIG
LYNI - Niš, Srbija
Ažurirano: 27/02/2021 04:30
Vedro
Vedro
 Pravac vetra varies
Vetar: varies 2 km/h
Temperatura: 3°C
Tačka rose: 1°C
Vlažnost: 87%
Pritisak: 1023 hPa
Pregled: Vedro
Vidljivost: greater than 10 km
2021/02/27 03:30 LYNI 270330Z VRB01KT CAVOK 03/01 Q1023 NOSIG
BKPR - Priština, Srbija
Ažurirano: 27/02/2021 05:00
Vedro
Vedro
 Pravac vetra calm
Vetar: Tišina
Temperatura: 1°C
Tačka rose: -1°C
Vlažnost: 87%
Pritisak: 1023 hPa
Pregled: Vedro
Vidljivost: greater than 10 km
2021/02/27 04:00 BKPR 270400Z 00000KT CAVOK 01/M01 Q1023 NOSIG RMK 17010095
 
LHPP - Pecs / Pogany, Hungary
Ažurirano: 26/02/2021 18:45
NOT Current
Vedro
Vedro
 Pravac vetra SZ
Vetar: SZ 7 km/h
Temperatura: 15°C
Tačka rose: 4°C
Vlažnost: 48%
Pritisak: 1024 hPa
Pregled: Vedro
Vidljivost: greater than 10 km
2021/02/26 17:45 LHPP 261745Z 31004KT CAVOK 15/04 Q1024
LHUD - Szeged, Hungary
Ažurirano: 04/07/2019 01:45
NOT Current
Vedro
Vedro
 Pravac vetra S
Vetar: S 7 km/h
Temperatura: 18°C
Tačka rose: 13°C
Vlažnost: 73%
Pritisak: 1019 hPa
Pregled: Vedro
Vidljivost: greater than 10 km
2019/07/03 23:45 LHUD 032345Z 35004KT CAVOK 18/13 Q1019
LRTR - Timisoara, Romania
Ažurirano: 27/02/2021 04:30
Partly Cloudy
Partly Cloudy
 Pravac vetra IJI
Vetar: IJI 6 km/h
Temperatura: 3°C
Tačka rose: 3°C
Vlažnost: 100%
Pritisak: 1022 hPa
Oblaci: Partly Cloudy
Vidljivost: 8 km
2021/02/27 03:30 LRTR 270330Z 11003KT 8000 NSC 03/03 Q1022
 
LRCV - Craiova, Romania
Ažurirano: 27/02/2021 04:30
Partly Cloudy
Partly Cloudy
 Pravac vetra calm
Vetar: Tišina
Temperatura: 5°C
Tačka rose: 3°C
Vlažnost: 87%
Pritisak: 1019 hPa
Oblaci: Partly Cloudy
Vidljivost: 7 km
2021/02/27 03:30 LRCV 270330Z 00000KT 7000 NSC 05/03 Q1019
LBSF - Sofia, Bulgaria
Ažurirano: 27/02/2021 04:30
Partly Cloudy
Partly Cloudy
 Pravac vetra calm
Vetar: Tišina
Temperatura: 0°C
Tačka rose: 0°C
Vlažnost: 100%
Pritisak: 1022 hPa
Oblaci: Partly Cloudy
Vidljivost: 7 km
2021/02/27 03:30 LBSF 270330Z 00000KT 7000 NSC 00/M00 Q1022 TEMPO 5000 BR
LWSK - Skoplje, Makedonija
Ažurirano: 27/02/2021 05:00
Vedro
Vedro
 Pravac vetra calm
Vetar: Tišina
Temperatura: 1°C
Tačka rose: 0°C
Vlažnost: 93%
Pritisak: 1023 hPa
Pregled: Vedro
Vidljivost: greater than 10 km
2021/02/27 04:00 LWSK 270400Z 00000KT CAVOK 01/00 Q1023 NOSIG
 
LYPG - Podgorica, Crna Gora
Ažurirano: 27/02/2021 04:30
Vedro
Vedro
 Pravac vetra varies
Vetar: varies 2 km/h
Temperatura: 5°C
Tačka rose: 3°C
Vlažnost: 87%
Pritisak: 1022 hPa
Pregled: Vedro
Vidljivost: greater than 10 km
2021/02/27 03:30 LYPG 270330Z VRB01KT CAVOK 05/03 Q1022 NOSIG
LQSA - Sarajevo, Bosna i Hercegovina
Ažurirano: 27/02/2021 04:00
Partly Cloudy
Partly Cloudy
 Pravac vetra J
Vetar: J 2 km/h
Temperatura: 0°C
Tačka rose: 0°C
Vlažnost: 100%
Pritisak: 1024 hPa
Oblaci: Partly Cloudy
Vidljivost: 7 km
2021/02/27 03:00 LQSA 270300Z 17001KT 7000 NSC M00/M00 Q1024
LDOS - Osijek, Hrvatksa
Ažurirano: 27/02/2021 04:30
Vedro
Vedro
 Pravac vetra SZ
Vetar: SZ 11 km/h
Temperatura: 2°C
Osećaj hladnoće: -1°C
Tačka rose: 2°C
Vlažnost: 100%
Pritisak: 1024 hPa
Pregled: Vedro
Vidljivost: greater than 10 km
2021/02/27 03:30 LDOS 270330Z 32006KT CAVOK 02/02 Q1024